Terminal Aerodrome Forecast
Issued by NWS

Home | Current Version | Previous Version | Text Only | Print | Product List | Glossary Off
Versions: 1 2 3 4 5 6 7 8 9 10 11 12 13 14

000
FTUS43 KMPX 152000 AAA
TAFAXN
TAF AMD
KAXN 152011Z 1520/1618 33010KT P6SM FEW060
     FM160000 28005KT P6SM SKC
     FM161100 24007KT P6SM SKC=

USA.gov is the U.S. government's official web portal to all federal, state and local government web resources and services.